createdAt,value
2018-09-01T00:00:14.305Z,4.40
2018-09-01T00:02:41.669Z,4.63
2018-09-01T00:05:09.034Z,3.90
2018-09-01T00:07:36.385Z,4.80
2018-09-01T00:10:03.753Z,4.30
2018-09-01T00:12:31.121Z,4.57
2018-09-01T00:14:58.451Z,4.20
2018-09-01T00:17:28.256Z,4.17
2018-09-01T00:19:56.449Z,4.20
2018-09-01T00:22:23.835Z,4.17
2018-09-01T00:24:52.111Z,5.27
2018-09-01T00:27:19.899Z,4.20
2018-09-01T00:29:47.251Z,4.83
2018-09-01T00:32:14.600Z,4.67
2018-09-01T00:34:41.945Z,4.60
2018-09-01T00:37:09.368Z,4.97
2018-09-01T00:39:41.280Z,4.43
2018-09-01T00:42:08.620Z,4.23
2018-09-01T00:44:35.948Z,4.23
2018-09-01T00:47:03.319Z,4.67
2018-09-01T00:49:30.725Z,4.77
2018-09-01T00:51:58.069Z,4.70
2018-09-01T00:54:25.403Z,3.73
2018-09-01T00:56:52.748Z,4.33
2018-09-01T00:59:20.111Z,4.10
2018-09-01T01:01:47.446Z,4.50
2018-09-01T01:04:14.783Z,4.53
2018-09-01T01:06:42.114Z,5.90
2018-09-01T01:09:09.455Z,5.20
2018-09-01T01:11:36.881Z,4.37
2018-09-01T01:14:04.259Z,4.23
2018-09-01T01:16:31.644Z,4.80
2018-09-01T01:18:58.980Z,4.70
2018-09-01T01:21:26.440Z,3.83
2018-09-01T01:23:53.816Z,4.50
2018-09-01T01:26:21.149Z,4.00
2018-09-01T01:28:48.500Z,4.93
2018-09-01T01:31:15.835Z,4.10
2018-09-01T01:33:43.196Z,4.27
2018-09-01T01:36:10.568Z,4.93
2018-09-01T01:38:37.940Z,4.63
2018-09-01T01:41:05.443Z,5.03
2018-09-01T01:43:32.796Z,4.33
2018-09-01T01:46:00.149Z,4.57
2018-09-01T01:48:27.528Z,5.73
2018-09-01T01:50:54.845Z,4.43
2018-09-01T01:53:22.184Z,4.30
2018-09-01T01:55:49.567Z,4.03
2018-09-01T01:58:16.919Z,4.80
2018-09-01T02:00:44.266Z,6.00
2018-09-01T02:03:11.632Z,6.70
2018-09-01T02:05:38.972Z,4.67
2018-09-01T02:08:06.340Z,5.37
2018-09-01T02:10:33.682Z,5.13
2018-09-01T02:13:01.010Z,7.27
2018-09-01T02:15:28.356Z,7.33
2018-09-01T02:17:55.716Z,7.77
2018-09-01T02:20:23.051Z,8.00
2018-09-01T02:22:50.388Z,5.97
2018-09-01T02:25:17.723Z,6.40
2018-09-01T02:27:45.059Z,5.53
2018-09-01T02:30:12.417Z,5.73
2018-09-01T02:32:39.781Z,6.57
2018-09-01T02:35:07.148Z,5.70
2018-09-01T02:37:34.505Z,5.13
2018-09-01T02:40:01.860Z,4.90
2018-09-01T02:42:29.188Z,6.03
2018-09-01T02:44:56.557Z,5.17
2018-09-01T02:47:23.896Z,5.70
2018-09-01T02:49:51.255Z,7.03
2018-09-01T02:52:18.630Z,8.53
2018-09-01T02:54:45.940Z,6.10
2018-09-01T02:57:13.287Z,6.20
2018-09-01T02:59:40.672Z,7.13
2018-09-01T03:02:08.009Z,8.33
2018-09-01T03:04:35.351Z,6.93
2018-09-01T03:07:02.672Z,6.83
2018-09-01T03:09:30.019Z,14.53
2018-09-01T03:11:58.238Z,6.80
2018-09-01T03:14:26.320Z,7.97
2018-09-01T03:16:54.564Z,9.57
2018-09-01T03:19:22.328Z,19.30
2018-09-01T03:21:49.683Z,18.03
2018-09-01T03:24:17.051Z,15.70
2018-09-01T03:26:44.403Z,13.10
2018-09-01T03:29:11.740Z,13.93
2018-09-01T03:31:39.094Z,12.63
2018-09-01T03:34:06.428Z,12.30
2018-09-01T03:36:33.763Z,8.43
2018-09-01T03:39:01.524Z,11.80
2018-09-01T03:41:28.875Z,10.53
2018-09-01T03:43:56.217Z,11.10
2018-09-01T03:46:23.681Z,12.13
2018-09-01T03:48:51.458Z,12.17
2018-09-01T03:51:18.791Z,12.33
2018-09-01T03:53:46.148Z,13.17
2018-09-01T03:56:13.487Z,12.43
2018-09-01T03:58:40.884Z,10.57
2018-09-01T04:01:08.212Z,10.40
2018-09-01T04:03:35.713Z,10.63
2018-09-01T04:06:03.064Z,10.87
2018-09-01T04:08:30.491Z,9.50
2018-09-01T04:10:57.859Z,10.03
2018-09-01T04:13:25.208Z,10.87
2018-09-01T04:15:52.543Z,10.17
2018-09-01T04:18:19.883Z,7.23
2018-09-01T04:20:47.217Z,9.37
2018-09-01T04:23:14.563Z,9.40
2018-09-01T04:25:41.900Z,7.17
2018-09-01T04:28:09.246Z,7.40
2018-09-01T04:30:36.597Z,8.33
2018-09-01T04:33:03.947Z,8.10
2018-09-01T04:35:31.293Z,8.43
2018-09-01T04:37:58.688Z,7.13
2018-09-01T04:40:26.056Z,7.47
2018-09-01T04:42:53.404Z,6.70
2018-09-01T04:45:20.781Z,6.90
2018-09-01T04:47:48.141Z,6.33
2018-09-01T04:50:15.539Z,7.10
2018-09-01T04:52:43.035Z,7.23
2018-09-01T04:55:10.381Z,6.47
2018-09-01T04:57:37.851Z,6.03
2018-09-01T05:00:05.223Z,6.10
2018-09-01T05:02:32.585Z,5.83
2018-09-01T05:04:59.917Z,6.07
2018-09-01T05:07:27.251Z,6.27
2018-09-01T05:09:54.600Z,6.40
2018-09-01T05:14:59.156Z,6.13
2018-09-01T05:17:26.511Z,7.13
2018-09-01T05:19:53.855Z,6.50
2018-09-01T05:22:21.180Z,6.40
2018-09-01T05:24:48.565Z,6.27
2018-09-01T05:27:15.906Z,5.50
2018-09-01T05:29:43.255Z,6.07
2018-09-01T05:32:10.581Z,6.03
2018-09-01T05:34:37.944Z,5.83
2018-09-01T05:37:05.277Z,5.60
2018-09-01T05:39:32.639Z,5.67
2018-09-01T05:41:59.986Z,5.70
2018-09-01T05:44:27.316Z,5.83
2018-09-01T05:46:54.633Z,5.43
2018-09-01T05:49:21.980Z,5.80
2018-09-01T05:51:49.320Z,5.80
2018-09-01T05:54:16.660Z,6.77
2018-09-01T05:56:44.192Z,6.63
2018-09-01T05:59:11.529Z,6.40
2018-09-01T06:01:38.921Z,6.53
2018-09-01T06:04:06.260Z,6.10
2018-09-01T06:06:33.589Z,6.07
2018-09-01T06:09:00.939Z,6.33
2018-09-01T06:11:28.314Z,6.00
2018-09-01T06:13:55.651Z,6.10
2018-09-01T06:16:23.033Z,6.70
2018-09-01T06:18:50.372Z,6.50
2018-09-01T06:21:17.784Z,6.20
2018-09-01T06:23:45.172Z,6.17
2018-09-01T06:26:12.481Z,6.00
2018-09-01T06:28:44.680Z,6.17
2018-09-01T06:31:12.073Z,6.43
2018-09-01T06:33:39.476Z,5.70
2018-09-01T06:36:06.821Z,6.80
2018-09-01T06:38:34.197Z,6.33
2018-09-01T06:41:01.513Z,6.77
2018-09-01T06:43:28.864Z,7.47
2018-09-01T06:45:56.205Z,5.63
2018-09-01T06:48:23.558Z,6.07
2018-09-01T06:50:50.904Z,6.10
2018-09-01T06:53:18.251Z,6.17
2018-09-01T06:55:45.587Z,6.27
2018-09-01T06:58:12.962Z,6.50
2018-09-01T07:00:40.330Z,7.57
2018-09-01T07:03:07.682Z,7.37
2018-09-01T07:05:35.071Z,6.53
2018-09-01T07:08:02.443Z,7.33
2018-09-01T07:10:29.800Z,6.37
2018-09-01T07:12:57.616Z,6.43
2018-09-01T07:15:24.989Z,6.12
2018-09-01T07:17:52.329Z,6.60
2018-09-01T07:20:19.675Z,6.03
2018-09-01T07:22:47.008Z,6.13
2018-09-01T07:25:14.357Z,6.63
2018-09-01T07:27:41.696Z,6.00
2018-09-01T07:30:10.002Z,6.27
2018-09-01T07:32:37.408Z,5.97
2018-09-01T07:35:04.760Z,5.93
2018-09-01T07:37:32.124Z,5.90
2018-09-01T07:39:59.484Z,6.13
2018-09-01T07:42:26.834Z,5.97
2018-09-01T07:44:54.204Z,5.73
2018-09-01T07:47:21.535Z,5.27
2018-09-01T07:49:48.895Z,5.50
2018-09-01T07:52:16.208Z,6.00
2018-09-01T07:54:43.598Z,6.00
2018-09-01T07:57:10.974Z,5.90
2018-09-01T07:59:38.314Z,6.00
2018-09-01T08:02:05.819Z,6.40
2018-09-01T08:04:33.163Z,5.50
2018-09-01T08:07:00.505Z,6.33
2018-09-01T08:09:27.837Z,5.90
2018-09-01T08:11:55.171Z,6.27
2018-09-01T08:14:22.638Z,5.23
2018-09-01T08:16:49.925Z,5.80
2018-09-01T08:19:17.301Z,6.27
2018-09-01T08:21:44.690Z,6.15
2018-09-01T08:24:12.029Z,6.67
2018-09-01T08:26:39.373Z,6.70
2018-09-01T08:29:06.703Z,6.55
2018-09-01T08:31:34.038Z,6.97
2018-09-01T08:34:01.382Z,6.30
2018-09-01T08:36:28.721Z,6.45
2018-09-01T08:38:56.071Z,6.83
2018-09-01T08:41:23.423Z,6.47
2018-09-01T08:43:51.120Z,5.65
2018-09-01T08:46:18.449Z,6.22
2018-09-01T08:48:45.799Z,6.00
2018-09-01T08:51:13.163Z,7.53
2018-09-01T08:53:40.516Z,6.33
2018-09-01T08:56:07.867Z,5.97
2018-09-01T08:58:35.209Z,5.90
2018-09-01T09:01:02.552Z,6.70
2018-09-01T09:03:29.887Z,5.60
2018-09-01T09:05:57.225Z,5.80
2018-09-01T09:08:24.555Z,5.57
2018-09-01T09:10:51.895Z,5.87
2018-09-01T09:13:19.239Z,5.80
2018-09-01T09:15:47.319Z,4.97
2018-09-01T09:18:14.691Z,4.77
2018-09-01T09:20:42.156Z,4.07
2018-09-01T09:23:09.496Z,4.40
2018-09-01T09:25:36.843Z,4.03
2018-09-01T09:28:04.548Z,3.33
2018-09-01T09:30:31.877Z,4.40
2018-09-01T09:32:59.204Z,3.40
2018-09-01T09:35:26.547Z,3.27
2018-09-01T09:37:53.983Z,3.30
2018-09-01T09:40:21.460Z,3.60
2018-09-01T09:42:48.798Z,3.97
2018-09-01T09:45:16.133Z,4.13
2018-09-01T09:47:43.488Z,5.33
2018-09-01T09:50:10.843Z,4.77
2018-09-01T09:52:38.207Z,3.87
2018-09-01T09:55:05.696Z,3.27
2018-09-01T09:57:33.048Z,3.07
2018-09-01T10:00:00.387Z,4.07
2018-09-01T10:02:27.741Z,4.43
2018-09-01T10:04:55.091Z,4.10
2018-09-01T10:07:22.423Z,4.93
2018-09-01T10:09:49.758Z,4.90
2018-09-01T10:12:17.781Z,4.30
2018-09-01T10:14:45.112Z,4.43
2018-09-01T10:17:12.757Z,5.30
2018-09-01T10:19:40.095Z,5.30
2018-09-01T10:22:07.431Z,5.17
2018-09-01T10:24:34.859Z,4.67
2018-09-01T10:27:02.232Z,4.93
2018-09-01T10:29:29.553Z,4.07
2018-09-01T10:31:56.894Z,3.80
2018-09-01T10:34:24.240Z,3.80
2018-09-01T10:36:51.605Z,5.83
2018-09-01T10:39:18.944Z,4.60
2018-09-01T10:41:46.306Z,4.83
2018-09-01T10:44:13.643Z,5.43
2018-09-01T10:46:41.005Z,5.10
2018-09-01T10:49:08.395Z,5.53
2018-09-01T10:51:35.712Z,5.43
2018-09-01T10:54:03.068Z,5.17
2018-09-01T10:56:30.404Z,4.17
2018-09-01T10:58:57.936Z,4.60
2018-09-01T11:01:25.255Z,4.53
2018-09-01T11:03:52.596Z,4.50
2018-09-01T11:06:19.931Z,4.00
2018-09-01T11:08:47.276Z,4.13
2018-09-01T11:11:14.675Z,4.63
2018-09-01T11:13:42.109Z,3.37
2018-09-01T11:16:09.398Z,4.10
2018-09-01T11:18:36.725Z,4.27
2018-09-01T11:21:04.094Z,3.60
2018-09-01T11:23:31.449Z,3.80
2018-09-01T11:25:58.820Z,4.20
2018-09-01T11:28:26.209Z,3.67
2018-09-01T11:30:53.575Z,4.17
2018-09-01T11:33:20.934Z,4.60
2018-09-01T11:35:48.328Z,5.67
2018-09-01T11:38:15.671Z,4.50
2018-09-01T11:40:43.053Z,4.80
2018-09-01T11:43:10.848Z,3.97
2018-09-01T11:45:37.923Z,3.47
2018-09-01T11:48:05.395Z,3.83
2018-09-01T11:50:32.750Z,3.63
2018-09-01T11:53:00.116Z,3.40
2018-09-01T11:55:27.455Z,3.67
2018-09-01T22:13:05.447Z,6.67
2018-09-01T22:15:32.877Z,6.13
2018-09-01T22:18:00.589Z,6.80
2018-09-01T22:20:28.205Z,6.40
2018-09-01T22:22:55.894Z,6.83
2018-09-01T22:25:23.662Z,6.67
2018-09-01T22:27:51.420Z,7.37
2018-09-01T22:30:18.749Z,11.00
2018-09-01T22:32:46.095Z,11.63
2018-09-01T22:35:13.491Z,5.43
2018-09-01T22:37:40.847Z,5.97
2018-09-01T22:40:08.236Z,5.50
2018-09-01T22:42:35.909Z,6.80
2018-09-01T22:45:03.446Z,6.60
2018-09-01T22:47:32.340Z,6.57
2018-09-01T22:50:00.036Z,6.73
2018-09-01T22:52:27.697Z,6.50
2018-09-01T22:54:55.215Z,6.13
2018-09-01T22:57:22.946Z,6.33
2018-09-01T22:59:50.460Z,6.90
2018-09-01T23:02:18.160Z,7.10
2018-09-01T23:04:45.750Z,7.07
2018-09-01T23:07:13.384Z,6.20
2018-09-01T23:09:40.980Z,6.40
2018-09-01T23:12:08.671Z,6.33
2018-09-01T23:14:36.307Z,7.57
2018-09-01T23:17:03.984Z,7.17
2018-09-01T23:19:31.542Z,7.70
2018-09-01T23:21:59.267Z,7.33
2018-09-01T23:24:27.033Z,7.93
2018-09-01T23:26:54.708Z,7.53
2018-09-01T23:29:22.803Z,7.57
2018-09-01T23:31:50.547Z,7.67
2018-09-01T23:34:18.239Z,6.83
2018-09-01T23:36:46.016Z,7.90
2018-09-01T23:39:13.723Z,6.83
2018-09-01T23:41:41.483Z,7.80
2018-09-01T23:44:09.340Z,8.07
2018-09-01T23:46:38.309Z,7.37
2018-09-01T23:49:06.573Z,6.87
2018-09-01T23:51:34.412Z,7.17
2018-09-01T23:54:02.501Z,7.67
2018-09-01T23:56:30.394Z,8.57
2018-09-01T23:58:59.260Z,8.13
